sensor_id;sensor_type;location;lat;lon;timestamp;P1;durP1;ratioP1;P2;durP2;ratioP2
25721;SDS011;13578;53.450;15.496;2023-04-02T00:01:48;5.95;;;4.70;;
25721;SDS011;13578;53.450;15.496;2023-04-02T00:08:33;9.73;;;4.50;;
25721;SDS011;13578;53.450;15.496;2023-04-02T00:11:43;5.63;;;4.65;;
25721;SDS011;13578;53.450;15.496;2023-04-02T00:14:48;10.80;;;4.32;;
25721;SDS011;13578;53.450;15.496;2023-04-02T00:17:54;6.78;;;4.10;;
25721;SDS011;13578;53.450;15.496;2023-04-02T00:20:59;7.55;;;4.40;;
25721;SDS011;13578;53.450;15.496;2023-04-02T00:24:23;6.97;;;4.35;;
25721;SDS011;13578;53.450;15.496;2023-04-02T00:27:23;6.35;;;4.88;;
25721;SDS011;13578;53.450;15.496;2023-04-02T00:30:24;8.32;;;4.25;;
25721;SDS011;13578;53.450;15.496;2023-04-02T00:33:26;5.10;;;4.25;;
25721;SDS011;13578;53.450;15.496;2023-04-02T00:36:30;4.93;;;4.43;;
25721;SDS011;13578;53.450;15.496;2023-04-02T00:39:38;16.02;;;5.35;;
25721;SDS011;13578;53.450;15.496;2023-04-02T00:42:42;10.13;;;4.38;;
25721;SDS011;13578;53.450;15.496;2023-04-02T00:45:44;8.07;;;4.20;;
25721;SDS011;13578;53.450;15.496;2023-04-02T00:52:15;4.68;;;4.28;;
25721;SDS011;13578;53.450;15.496;2023-04-02T00:55:21;4.00;;;3.70;;
25721;SDS011;13578;53.450;15.496;2023-04-02T00:58:27;6.00;;;4.75;;
25721;SDS011;13578;53.450;15.496;2023-04-02T01:01:35;11.95;;;4.70;;
25721;SDS011;13578;53.450;15.496;2023-04-02T01:04:37;5.93;;;4.63;;
25721;SDS011;13578;53.450;15.496;2023-04-02T01:07:41;5.78;;;4.03;;
25721;SDS011;13578;53.450;15.496;2023-04-02T01:24:07;4.20;;;3.90;;
25721;SDS011;13578;53.450;15.496;2023-04-02T01:27:18;5.00;;;4.60;;
25721;SDS011;13578;53.450;15.496;2023-04-02T01:30:33;5.15;;;4.38;;
25721;SDS011;13578;53.450;15.496;2023-04-02T01:33:35;5.07;;;3.72;;
25721;SDS011;13578;53.450;15.496;2023-04-02T01:40:28;5.65;;;4.40;;
25721;SDS011;13578;53.450;15.496;2023-04-02T01:46:51;11.82;;;4.22;;
25721;SDS011;13578;53.450;15.496;2023-04-02T01:50:26;4.88;;;4.10;;
25721;SDS011;13578;53.450;15.496;2023-04-02T01:53:18;6.25;;;4.72;;
25721;SDS011;13578;53.450;15.496;2023-04-02T01:56:21;10.73;;;5.25;;
25721;SDS011;13578;53.450;15.496;2023-04-02T01:59:22;8.15;;;4.43;;
25721;SDS011;13578;53.450;15.496;2023-04-02T02:02:23;6.57;;;3.97;;
25721;SDS011;13578;53.450;15.496;2023-04-02T02:05:24;6.05;;;4.55;;
25721;SDS011;13578;53.450;15.496;2023-04-02T02:11:37;5.65;;;4.63;;
25721;SDS011;13578;53.450;15.496;2023-04-02T02:14:38;10.68;;;4.93;;
25721;SDS011;13578;53.450;15.496;2023-04-02T02:17:45;5.80;;;4.75;;
25721;SDS011;13578;53.450;15.496;2023-04-02T02:20:46;7.47;;;4.53;;
25721;SDS011;13578;53.450;15.496;2023-04-02T02:23:47;6.70;;;3.75;;
25721;SDS011;13578;53.450;15.496;2023-04-02T02:26:49;5.85;;;4.68;;
25721;SDS011;13578;53.450;15.496;2023-04-02T02:30:15;10.93;;;4.60;;
25721;SDS011;13578;53.450;15.496;2023-04-02T02:39:55;5.22;;;4.22;;
25721;SDS011;13578;53.450;15.496;2023-04-02T02:43:00;4.20;;;3.80;;
25721;SDS011;13578;53.450;15.496;2023-04-02T02:46:03;6.72;;;4.05;;
25721;SDS011;13578;53.450;15.496;2023-04-02T02:49:08;7.95;;;4.18;;
25721;SDS011;13578;53.450;15.496;2023-04-02T02:52:20;14.77;;;4.50;;
25721;SDS011;13578;53.450;15.496;2023-04-02T02:55:34;8.38;;;4.55;;
25721;SDS011;13578;53.450;15.496;2023-04-02T02:58:36;7.65;;;5.20;;
25721;SDS011;13578;53.450;15.496;2023-04-02T03:01:37;4.50;;;4.05;;
25721;SDS011;13578;53.450;15.496;2023-04-02T03:04:38;6.60;;;3.70;;
25721;SDS011;13578;53.450;15.496;2023-04-02T03:07:38;5.78;;;4.40;;
25721;SDS011;13578;53.450;15.496;2023-04-02T03:14:43;5.93;;;3.83;;
25721;SDS011;13578;53.450;15.496;2023-04-02T03:17:52;12.35;;;4.28;;
25721;SDS011;13578;53.450;15.496;2023-04-02T03:20:56;5.75;;;3.83;;
25721;SDS011;13578;53.450;15.496;2023-04-02T03:27:19;5.78;;;4.28;;
25721;SDS011;13578;53.450;15.496;2023-04-02T03:33:40;5.97;;;3.88;;
25721;SDS011;13578;53.450;15.496;2023-04-02T03:40:03;6.47;;;4.47;;
25721;SDS011;13578;53.450;15.496;2023-04-02T03:46:36;6.07;;;3.95;;
25721;SDS011;13578;53.450;15.496;2023-04-02T03:50:17;8.82;;;4.57;;
25721;SDS011;13578;53.450;15.496;2023-04-02T03:53:14;4.72;;;4.43;;
25721;SDS011;13578;53.450;15.496;2023-04-02T03:56:24;9.30;;;4.75;;
25721;SDS011;13578;53.450;15.496;2023-04-02T04:05:49;6.00;;;4.13;;
25721;SDS011;13578;53.450;15.496;2023-04-02T04:08:57;9.18;;;4.47;;
25721;SDS011;13578;53.450;15.496;2023-04-02T04:15:30;7.57;;;4.68;;
25721;SDS011;13578;53.450;15.496;2023-04-02T04:18:47;5.45;;;4.32;;
25721;SDS011;13578;53.450;15.496;2023-04-02T04:25:29;5.82;;;4.13;;
25721;SDS011;13578;53.450;15.496;2023-04-02T04:32:38;8.48;;;4.15;;
25721;SDS011;13578;53.450;15.496;2023-04-02T04:35:53;7.68;;;4.15;;
25721;SDS011;13578;53.450;15.496;2023-04-02T04:38:57;5.45;;;4.05;;
25721;SDS011;13578;53.450;15.496;2023-04-02T04:42:04;6.72;;;4.20;;
25721;SDS011;13578;53.450;15.496;2023-04-02T04:51:42;6.63;;;4.45;;
25721;SDS011;13578;53.450;15.496;2023-04-02T04:54:47;6.13;;;4.50;;
25721;SDS011;13578;53.450;15.496;2023-04-02T04:57:48;7.22;;;4.72;;
25721;SDS011;13578;53.450;15.496;2023-04-02T05:07:41;4.30;;;3.90;;
25721;SDS011;13578;53.450;15.496;2023-04-02T05:11:08;4.88;;;4.53;;
25721;SDS011;13578;53.450;15.496;2023-04-02T05:14:17;10.70;;;4.45;;
25721;SDS011;13578;53.450;15.496;2023-04-02T05:17:27;5.68;;;4.38;;
25721;SDS011;13578;53.450;15.496;2023-04-02T05:20:46;9.75;;;5.50;;
25721;SDS011;13578;53.450;15.496;2023-04-02T05:24:58;6.32;;;3.92;;
25721;SDS011;13578;53.450;15.496;2023-04-02T05:31:36;8.52;;;4.30;;
25721;SDS011;13578;53.450;15.496;2023-04-02T05:34:38;6.75;;;4.00;;
25721;SDS011;13578;53.450;15.496;2023-04-02T05:37:41;7.80;;;4.70;;
25721;SDS011;13578;53.450;15.496;2023-04-02T05:40:42;4.38;;;3.95;;
25721;SDS011;13578;53.450;15.496;2023-04-02T05:43:47;13.20;;;4.95;;
25721;SDS011;13578;53.450;15.496;2023-04-02T05:46:58;4.28;;;3.88;;
25721;SDS011;13578;53.450;15.496;2023-04-02T05:53:11;4.25;;;3.63;;
25721;SDS011;13578;53.450;15.496;2023-04-02T05:56:23;4.97;;;4.05;;
25721;SDS011;13578;53.450;15.496;2023-04-02T05:59:30;5.03;;;4.10;;
25721;SDS011;13578;53.450;15.496;2023-04-02T06:02:43;7.55;;;4.20;;
25721;SDS011;13578;53.450;15.496;2023-04-02T06:05:52;6.18;;;4.13;;
25721;SDS011;13578;53.450;15.496;2023-04-02T06:09:04;7.35;;;4.43;;
25721;SDS011;13578;53.450;15.496;2023-04-02T06:12:26;3.90;;;3.50;;
25721;SDS011;13578;53.450;15.496;2023-04-02T06:15:45;6.75;;;4.05;;
25721;SDS011;13578;53.450;15.496;2023-04-02T06:18:47;4.28;;;3.17;;
25721;SDS011;13578;53.450;15.496;2023-04-02T06:21:48;6.00;;;3.88;;
25721;SDS011;13578;53.450;15.496;2023-04-02T06:24:57;3.78;;;3.42;;
25721;SDS011;13578;53.450;15.496;2023-04-02T06:28:02;11.52;;;4.28;;
25721;SDS011;13578;53.450;15.496;2023-04-02T06:31:07;8.07;;;4.45;;
25721;SDS011;13578;53.450;15.496;2023-04-02T06:34:15;6.32;;;4.15;;
25721;SDS011;13578;53.450;15.496;2023-04-02T06:43:45;4.90;;;3.88;;
25721;SDS011;13578;53.450;15.496;2023-04-02T06:46:59;6.72;;;3.83;;
25721;SDS011;13578;53.450;15.496;2023-04-02T06:50:13;4.65;;;4.25;;
25721;SDS011;13578;53.450;15.496;2023-04-02T06:53:36;12.57;;;4.22;;
25721;SDS011;13578;53.450;15.496;2023-04-02T06:56:45;6.57;;;4.10;;
25721;SDS011;13578;53.450;15.496;2023-04-02T06:59:48;4.47;;;3.40;;
25721;SDS011;13578;53.450;15.496;2023-04-02T07:02:48;4.75;;;3.95;;
25721;SDS011;13578;53.450;15.496;2023-04-02T07:05:50;5.88;;;4.63;;
25721;SDS011;13578;53.450;15.496;2023-04-02T07:08:52;8.40;;;3.97;;
25721;SDS011;13578;53.450;15.496;2023-04-02T07:11:52;5.97;;;4.10;;
25721;SDS011;13578;53.450;15.496;2023-04-02T07:14:53;4.18;;;3.88;;
25721;SDS011;13578;53.450;15.496;2023-04-02T07:17:53;7.88;;;4.57;;
25721;SDS011;13578;53.450;15.496;2023-04-02T07:20:58;5.68;;;4.20;;
25721;SDS011;13578;53.450;15.496;2023-04-02T07:23:58;7.68;;;4.28;;
25721;SDS011;13578;53.450;15.496;2023-04-02T07:26:59;4.03;;;3.60;;
25721;SDS011;13578;53.450;15.496;2023-04-02T07:30:00;7.15;;;4.53;;
25721;SDS011;13578;53.450;15.496;2023-04-02T07:33:00;6.43;;;3.65;;
25721;SDS011;13578;53.450;15.496;2023-04-02T07:36:01;4.82;;;3.88;;
25721;SDS011;13578;53.450;15.496;2023-04-02T07:39:02;6.25;;;4.18;;
25721;SDS011;13578;53.450;15.496;2023-04-02T07:42:03;5.20;;;3.45;;
25721;SDS011;13578;53.450;15.496;2023-04-02T07:45:04;7.82;;;3.42;;
25721;SDS011;13578;53.450;15.496;2023-04-02T07:48:06;4.63;;;4.18;;
25721;SDS011;13578;53.450;15.496;2023-04-02T07:51:18;5.57;;;4.10;;
25721;SDS011;13578;53.450;15.496;2023-04-02T07:54:21;9.05;;;4.25;;
25721;SDS011;13578;53.450;15.496;2023-04-02T07:57:21;3.85;;;3.53;;
25721;SDS011;13578;53.450;15.496;2023-04-02T08:00:22;5.72;;;3.38;;
25721;SDS011;13578;53.450;15.496;2023-04-02T08:03:24;7.13;;;3.80;;
25721;SDS011;13578;53.450;15.496;2023-04-02T08:06:25;4.05;;;3.75;;
25721;SDS011;13578;53.450;15.496;2023-04-02T08:09:26;4.40;;;3.70;;
25721;SDS011;13578;53.450;15.496;2023-04-02T08:12:27;6.40;;;3.80;;
25721;SDS011;13578;53.450;15.496;2023-04-02T08:15:28;3.47;;;3.17;;
25721;SDS011;13578;53.450;15.496;2023-04-02T08:18:29;8.13;;;4.63;;
25721;SDS011;13578;53.450;15.496;2023-04-02T08:21:30;4.05;;;3.55;;
25721;SDS011;13578;53.450;15.496;2023-04-02T08:24:31;6.28;;;3.80;;
25721;SDS011;13578;53.450;15.496;2023-04-02T08:27:31;3.83;;;3.53;;
25721;SDS011;13578;53.450;15.496;2023-04-02T08:30:32;4.55;;;3.83;;
25721;SDS011;13578;53.450;15.496;2023-04-02T08:33:33;5.28;;;3.65;;
25721;SDS011;13578;53.450;15.496;2023-04-02T08:36:37;4.10;;;3.70;;
25721;SDS011;13578;53.450;15.496;2023-04-02T08:39:39;7.07;;;3.30;;
25721;SDS011;13578;53.450;15.496;2023-04-02T08:42:43;5.00;;;3.95;;
25721;SDS011;13578;53.450;15.496;2023-04-02T08:48:59;7.63;;;3.72;;
25721;SDS011;13578;53.450;15.496;2023-04-02T08:52:02;5.47;;;3.55;;
25721;SDS011;13578;53.450;15.496;2023-04-02T08:55:04;3.38;;;3.08;;
25721;SDS011;13578;53.450;15.496;2023-04-02T09:01:44;7.82;;;3.50;;
25721;SDS011;13578;53.450;15.496;2023-04-02T09:04:55;10.35;;;3.78;;
25721;SDS011;13578;53.450;15.496;2023-04-02T09:07:59;4.68;;;3.15;;
25721;SDS011;13578;53.450;15.496;2023-04-02T09:11:08;4.72;;;3.28;;
25721;SDS011;13578;53.450;15.496;2023-04-02T09:14:42;4.72;;;3.20;;
25721;SDS011;13578;53.450;15.496;2023-04-02T09:17:53;8.02;;;2.97;;
25721;SDS011;13578;53.450;15.496;2023-04-02T09:20:59;3.38;;;2.95;;
25721;SDS011;13578;53.450;15.496;2023-04-02T09:24:10;5.85;;;3.47;;
25721;SDS011;13578;53.450;15.496;2023-04-02T09:27:16;3.67;;;3.08;;
25721;SDS011;13578;53.450;15.496;2023-04-02T09:33:44;3.33;;;2.92;;
25721;SDS011;13578;53.450;15.496;2023-04-02T09:36:47;5.93;;;3.53;;
25721;SDS011;13578;53.450;15.496;2023-04-02T09:39:47;3.88;;;3.03;;
25721;SDS011;13578;53.450;15.496;2023-04-02T09:42:48;3.90;;;2.80;;
25721;SDS011;13578;53.450;15.496;2023-04-02T09:46:03;4.80;;;2.83;;
25721;SDS011;13578;53.450;15.496;2023-04-02T09:49:10;7.80;;;2.90;;
25721;SDS011;13578;53.450;15.496;2023-04-02T09:52:19;2.67;;;2.40;;
25721;SDS011;13578;53.450;15.496;2023-04-02T09:55:22;4.32;;;2.60;;
25721;SDS011;13578;53.450;15.496;2023-04-02T09:58:24;3.15;;;2.58;;
25721;SDS011;13578;53.450;15.496;2023-04-02T10:01:29;3.83;;;2.70;;
25721;SDS011;13578;53.450;15.496;2023-04-02T10:04:41;2.85;;;2.65;;
25721;SDS011;13578;53.450;15.496;2023-04-02T10:07:47;2.50;;;2.30;;
25721;SDS011;13578;53.450;15.496;2023-04-02T10:10:49;3.50;;;2.40;;
25721;SDS011;13578;53.450;15.496;2023-04-02T10:20:23;7.00;;;2.50;;
25721;SDS011;13578;53.450;15.496;2023-04-02T10:23:28;3.53;;;2.45;;
25721;SDS011;13578;53.450;15.496;2023-04-02T10:33:16;4.80;;;2.35;;
25721;SDS011;13578;53.450;15.496;2023-04-02T10:39:37;2.28;;;1.65;;
25721;SDS011;13578;53.450;15.496;2023-04-02T10:50:04;2.30;;;2.10;;
25721;SDS011;13578;53.450;15.496;2023-04-02T10:53:02;8.27;;;2.47;;
25721;SDS011;13578;53.450;15.496;2023-04-02T10:56:16;3.38;;;2.10;;
25721;SDS011;13578;53.450;15.496;2023-04-02T10:59:18;4.53;;;2.33;;
25721;SDS011;13578;53.450;15.496;2023-04-02T11:08:44;2.35;;;2.15;;
25721;SDS011;13578;53.450;15.496;2023-04-02T11:11:48;2.50;;;1.90;;
25721;SDS011;13578;53.450;15.496;2023-04-02T11:14:51;4.28;;;2.20;;
25721;SDS011;13578;53.450;15.496;2023-04-02T11:17:55;2.63;;;2.42;;
25721;SDS011;13578;53.450;15.496;2023-04-02T11:20:57;2.80;;;2.60;;
25721;SDS011;13578;53.450;15.496;2023-04-02T11:24:02;7.32;;;2.47;;
25721;SDS011;13578;53.450;15.496;2023-04-02T11:27:06;3.58;;;2.20;;
25721;SDS011;13578;53.450;15.496;2023-04-02T11:39:52;1.90;;;1.80;;
25721;SDS011;13578;53.450;15.496;2023-04-02T11:42:55;2.00;;;1.90;;
25721;SDS011;13578;53.450;15.496;2023-04-02T11:46:37;3.92;;;2.47;;
25721;SDS011;13578;53.450;15.496;2023-04-02T11:49:39;3.70;;;2.33;;
25721;SDS011;13578;53.450;15.496;2023-04-02T12:02:52;3.50;;;2.42;;
25721;SDS011;13578;53.450;15.496;2023-04-02T12:09:25;5.53;;;2.15;;
25721;SDS011;13578;53.450;15.496;2023-04-02T12:15:46;2.47;;;1.92;;
25721;SDS011;13578;53.450;15.496;2023-04-02T12:18:49;3.17;;;2.08;;
25721;SDS011;13578;53.450;15.496;2023-04-02T12:24:57;4.03;;;2.40;;
25721;SDS011;13578;53.450;15.496;2023-04-02T12:28:33;2.53;;;1.88;;
25721;SDS011;13578;53.450;15.496;2023-04-02T12:31:29;2.33;;;2.03;;
25721;SDS011;13578;53.450;15.496;2023-04-02T12:34:29;7.00;;;3.00;;
25721;SDS011;13578;53.450;15.496;2023-04-02T12:37:30;2.53;;;1.90;;
25721;SDS011;13578;53.450;15.496;2023-04-02T12:40:31;5.38;;;2.42;;
25721;SDS011;13578;53.450;15.496;2023-04-02T12:43:33;2.10;;;2.00;;
25721;SDS011;13578;53.450;15.496;2023-04-02T12:46:37;3.13;;;2.25;;
25721;SDS011;13578;53.450;15.496;2023-04-02T12:49:39;4.85;;;2.58;;
25721;SDS011;13578;53.450;15.496;2023-04-02T12:52:43;3.40;;;2.00;;
25721;SDS011;13578;53.450;15.496;2023-04-02T12:55:52;2.33;;;1.90;;
25721;SDS011;13578;53.450;15.496;2023-04-02T12:58:59;1.98;;;1.65;;
25721;SDS011;13578;53.450;15.496;2023-04-02T13:02:01;2.38;;;2.17;;
25721;SDS011;13578;53.450;15.496;2023-04-02T13:08:37;2.28;;;1.90;;
25721;SDS011;13578;53.450;15.496;2023-04-02T13:11:41;2.17;;;1.97;;
25721;SDS011;13578;53.450;15.496;2023-04-02T13:14:42;6.25;;;2.38;;
25721;SDS011;13578;53.450;15.496;2023-04-02T13:17:46;5.80;;;2.50;;
25721;SDS011;13578;53.450;15.496;2023-04-02T13:20:55;2.20;;;2.00;;
25721;SDS011;13578;53.450;15.496;2023-04-02T13:23:56;1.83;;;1.73;;
25721;SDS011;13578;53.450;15.496;2023-04-02T13:27:01;3.92;;;1.80;;
25721;SDS011;13578;53.450;15.496;2023-04-02T13:30:08;5.68;;;2.10;;
25721;SDS011;13578;53.450;15.496;2023-04-02T13:33:09;5.15;;;2.10;;
25721;SDS011;13578;53.450;15.496;2023-04-02T13:36:14;3.00;;;2.40;;
25721;SDS011;13578;53.450;15.496;2023-04-02T13:39:15;3.10;;;2.40;;
25721;SDS011;13578;53.450;15.496;2023-04-02T13:42:16;2.53;;;2.33;;
25721;SDS011;13578;53.450;15.496;2023-04-02T13:45:24;3.17;;;2.10;;
25721;SDS011;13578;53.450;15.496;2023-04-02T13:48:27;6.00;;;2.70;;
25721;SDS011;13578;53.450;15.496;2023-04-02T13:51:38;4.60;;;2.40;;
25721;SDS011;13578;53.450;15.496;2023-04-02T13:54:47;2.88;;;2.30;;
25721;SDS011;13578;53.450;15.496;2023-04-02T13:57:52;3.38;;;2.05;;
25721;SDS011;13578;53.450;15.496;2023-04-02T14:00:55;7.65;;;2.40;;
25721;SDS011;13578;53.450;15.496;2023-04-02T14:03:56;5.57;;;2.45;;
25721;SDS011;13578;53.450;15.496;2023-04-02T14:13:26;6.97;;;2.63;;
25721;SDS011;13578;53.450;15.496;2023-04-02T14:20:31;3.03;;;2.40;;
25721;SDS011;13578;53.450;15.496;2023-04-02T14:30:35;5.60;;;2.67;;
25721;SDS011;13578;53.450;15.496;2023-04-02T14:33:50;4.28;;;2.75;;
25721;SDS011;13578;53.450;15.496;2023-04-02T14:40:46;4.28;;;2.50;;
25721;SDS011;13578;53.450;15.496;2023-04-02T14:43:51;7.75;;;3.05;;
25721;SDS011;13578;53.450;15.496;2023-04-02T14:46:58;4.47;;;2.30;;
25721;SDS011;13578;53.450;15.496;2023-04-02T14:50:14;4.75;;;2.63;;
25721;SDS011;13578;53.450;15.496;2023-04-02T14:53:20;2.58;;;2.10;;
25721;SDS011;13578;53.450;15.496;2023-04-02T14:56:25;5.28;;;2.72;;
25721;SDS011;13578;53.450;15.496;2023-04-02T14:59:35;3.10;;;2.80;;
25721;SDS011;13578;53.450;15.496;2023-04-02T15:03:45;2.60;;;2.40;;
25721;SDS011;13578;53.450;15.496;2023-04-02T15:06:30;5.60;;;2.60;;
25721;SDS011;13578;53.450;15.496;2023-04-02T15:09:37;4.68;;;2.63;;
25721;SDS011;13578;53.450;15.496;2023-04-02T15:12:44;5.22;;;2.92;;
25721;SDS011;13578;53.450;15.496;2023-04-02T15:15:49;5.38;;;2.65;;
25721;SDS011;13578;53.450;15.496;2023-04-02T15:18:55;9.43;;;4.15;;
25721;SDS011;13578;53.450;15.496;2023-04-02T15:22:03;11.50;;;3.35;;
25721;SDS011;13578;53.450;15.496;2023-04-02T15:28:29;5.22;;;2.97;;
25721;SDS011;13578;53.450;15.496;2023-04-02T15:31:46;4.60;;;2.67;;
25721;SDS011;13578;53.450;15.496;2023-04-02T15:34:56;4.78;;;2.90;;
25721;SDS011;13578;53.450;15.496;2023-04-02T15:44:25;4.30;;;2.80;;
25721;SDS011;13578;53.450;15.496;2023-04-02T15:47:30;7.80;;;3.95;;
25721;SDS011;13578;53.450;15.496;2023-04-02T16:04:40;5.97;;;2.53;;
25721;SDS011;13578;53.450;15.496;2023-04-02T16:11:24;3.50;;;3.20;;
25721;SDS011;13578;53.450;15.496;2023-04-02T16:14:27;4.78;;;3.22;;
25721;SDS011;13578;53.450;15.496;2023-04-02T16:17:38;10.05;;;3.42;;
25721;SDS011;13578;53.450;15.496;2023-04-02T16:20:51;8.00;;;3.53;;
25721;SDS011;13578;53.450;15.496;2023-04-02T16:23:55;4.70;;;3.60;;
25721;SDS011;13578;53.450;15.496;2023-04-02T16:30:34;5.80;;;3.88;;
25721;SDS011;13578;53.450;15.496;2023-04-02T16:37:10;3.55;;;3.00;;
25721;SDS011;13578;53.450;15.496;2023-04-02T16:50:52;3.38;;;2.97;;
25721;SDS011;13578;53.450;15.496;2023-04-02T17:07:24;3.10;;;2.80;;
25721;SDS011;13578;53.450;15.496;2023-04-02T17:16:56;3.58;;;3.22;;
25721;SDS011;13578;53.450;15.496;2023-04-02T17:20:01;8.65;;;3.10;;
25721;SDS011;13578;53.450;15.496;2023-04-02T17:23:08;7.45;;;4.10;;
25721;SDS011;13578;53.450;15.496;2023-04-02T17:26:11;6.57;;;3.80;;
25721;SDS011;13578;53.450;15.496;2023-04-02T17:29:16;5.70;;;3.42;;
25721;SDS011;13578;53.450;15.496;2023-04-02T17:32:34;4.07;;;3.28;;
25721;SDS011;13578;53.450;15.496;2023-04-02T17:35:40;5.55;;;3.58;;
25721;SDS011;13578;53.450;15.496;2023-04-02T17:39:14;6.47;;;4.00;;
25721;SDS011;13578;53.450;15.496;2023-04-02T17:42:35;4.80;;;3.50;;
25721;SDS011;13578;53.450;15.496;2023-04-02T17:45:43;5.45;;;3.88;;
25721;SDS011;13578;53.450;15.496;2023-04-02T17:48:54;10.15;;;3.80;;
25721;SDS011;13578;53.450;15.496;2023-04-02T17:55:28;6.80;;;3.30;;
25721;SDS011;13578;53.450;15.496;2023-04-02T17:59:08;7.22;;;3.80;;
25721;SDS011;13578;53.450;15.496;2023-04-02T18:12:54;5.47;;;4.10;;
25721;SDS011;13578;53.450;15.496;2023-04-02T18:16:04;6.35;;;4.10;;
25721;SDS011;13578;53.450;15.496;2023-04-02T18:19:31;6.55;;;4.07;;
25721;SDS011;13578;53.450;15.496;2023-04-02T18:22:55;7.38;;;4.00;;
25721;SDS011;13578;53.450;15.496;2023-04-02T18:46:12;6.50;;;4.72;;
25721;SDS011;13578;53.450;15.496;2023-04-02T18:49:27;10.45;;;4.10;;
25721;SDS011;13578;53.450;15.496;2023-04-02T18:52:48;15.50;;;4.45;;
25721;SDS011;13578;53.450;15.496;2023-04-02T18:55:55;5.30;;;4.40;;
25721;SDS011;13578;53.450;15.496;2023-04-02T19:08:50;6.18;;;4.25;;
25721;SDS011;13578;53.450;15.496;2023-04-02T19:11:57;6.13;;;4.70;;
25721;SDS011;13578;53.450;15.496;2023-04-02T19:14:58;12.32;;;4.95;;
25721;SDS011;13578;53.450;15.496;2023-04-02T19:18:04;21.20;;;5.38;;
25721;SDS011;13578;53.450;15.496;2023-04-02T19:24:48;10.73;;;5.18;;
25721;SDS011;13578;53.450;15.496;2023-04-02T19:34:44;12.25;;;4.85;;
25721;SDS011;13578;53.450;15.496;2023-04-02T19:42:28;7.47;;;5.25;;
25721;SDS011;13578;53.450;15.496;2023-04-02T19:48:34;9.38;;;5.40;;
25721;SDS011;13578;53.450;15.496;2023-04-02T19:51:50;11.57;;;5.45;;
25721;SDS011;13578;53.450;15.496;2023-04-02T19:54:52;11.15;;;4.40;;
25721;SDS011;13578;53.450;15.496;2023-04-02T19:57:53;9.02;;;4.68;;
25721;SDS011;13578;53.450;15.496;2023-04-02T20:00:54;7.28;;;4.82;;
25721;SDS011;13578;53.450;15.496;2023-04-02T20:03:54;14.63;;;5.25;;
25721;SDS011;13578;53.450;15.496;2023-04-02T20:06:55;5.95;;;4.93;;
25721;SDS011;13578;53.450;15.496;2023-04-02T20:09:56;16.45;;;4.60;;
25721;SDS011;13578;53.450;15.496;2023-04-02T20:12:56;6.97;;;5.38;;
25721;SDS011;13578;53.450;15.496;2023-04-02T20:15:58;5.28;;;4.63;;
25721;SDS011;13578;53.450;15.496;2023-04-02T20:19:00;7.75;;;4.97;;
25721;SDS011;13578;53.450;15.496;2023-04-02T20:22:00;5.45;;;4.93;;
25721;SDS011;13578;53.450;15.496;2023-04-02T20:25:01;6.15;;;4.88;;
25721;SDS011;13578;53.450;15.496;2023-04-02T20:28:01;12.48;;;5.13;;
25721;SDS011;13578;53.450;15.496;2023-04-02T20:31:07;6.43;;;5.20;;
25721;SDS011;13578;53.450;15.496;2023-04-02T20:34:12;9.65;;;5.43;;
25721;SDS011;13578;53.450;15.496;2023-04-02T20:37:13;13.00;;;5.05;;
25721;SDS011;13578;53.450;15.496;2023-04-02T20:40:13;8.30;;;5.22;;
25721;SDS011;13578;53.450;15.496;2023-04-02T20:43:14;8.57;;;4.60;;
25721;SDS011;13578;53.450;15.496;2023-04-02T20:46:15;11.48;;;5.93;;
25721;SDS011;13578;53.450;15.496;2023-04-02T20:49:16;15.65;;;5.38;;
25721;SDS011;13578;53.450;15.496;2023-04-02T20:52:16;11.48;;;4.80;;
25721;SDS011;13578;53.450;15.496;2023-04-02T20:55:17;9.18;;;5.50;;
25721;SDS011;13578;53.450;15.496;2023-04-02T20:58:18;15.52;;;4.82;;
25721;SDS011;13578;53.450;15.496;2023-04-02T21:01:20;9.98;;;5.28;;
25721;SDS011;13578;53.450;15.496;2023-04-02T21:04:22;9.68;;;5.25;;
25721;SDS011;13578;53.450;15.496;2023-04-02T21:07:23;8.93;;;5.32;;
25721;SDS011;13578;53.450;15.496;2023-04-02T21:10:23;20.27;;;5.70;;
25721;SDS011;13578;53.450;15.496;2023-04-02T21:13:26;6.18;;;5.47;;
25721;SDS011;13578;53.450;15.496;2023-04-02T21:16:28;6.30;;;5.68;;
25721;SDS011;13578;53.450;15.496;2023-04-02T21:19:30;11.73;;;6.00;;
25721;SDS011;13578;53.450;15.496;2023-04-02T21:22:31;6.13;;;4.68;;
25721;SDS011;13578;53.450;15.496;2023-04-02T21:25:32;8.63;;;5.10;;
25721;SDS011;13578;53.450;15.496;2023-04-02T21:28:33;6.00;;;5.35;;
25721;SDS011;13578;53.450;15.496;2023-04-02T21:31:37;12.88;;;5.13;;
25721;SDS011;13578;53.450;15.496;2023-04-02T21:34:39;6.32;;;5.45;;
25721;SDS011;13578;53.450;15.496;2023-04-02T21:37:40;7.03;;;4.35;;
25721;SDS011;13578;53.450;15.496;2023-04-02T21:40:40;9.43;;;5.05;;
25721;SDS011;13578;53.450;15.496;2023-04-02T21:43:41;7.88;;;4.68;;
25721;SDS011;13578;53.450;15.496;2023-04-02T21:46:43;8.23;;;5.47;;
25721;SDS011;13578;53.450;15.496;2023-04-02T21:49:44;8.45;;;4.88;;
25721;SDS011;13578;53.450;15.496;2023-04-02T21:52:45;8.70;;;5.28;;
25721;SDS011;13578;53.450;15.496;2023-04-02T21:55:45;10.40;;;5.07;;
25721;SDS011;13578;53.450;15.496;2023-04-02T21:58:46;10.80;;;5.63;;
25721;SDS011;13578;53.450;15.496;2023-04-02T22:01:48;9.35;;;6.10;;
25721;SDS011;13578;53.450;15.496;2023-04-02T22:04:50;9.38;;;5.03;;
25721;SDS011;13578;53.450;15.496;2023-04-02T22:07:51;16.80;;;5.93;;
25721;SDS011;13578;53.450;15.496;2023-04-02T22:10:53;13.70;;;4.85;;
25721;SDS011;13578;53.450;15.496;2023-04-02T22:13:53;9.32;;;5.97;;
25721;SDS011;13578;53.450;15.496;2023-04-02T22:16:54;17.05;;;6.30;;
25721;SDS011;13578;53.450;15.496;2023-04-02T22:19:57;5.93;;;5.32;;
25721;SDS011;13578;53.450;15.496;2023-04-02T22:22:58;12.30;;;5.65;;
25721;SDS011;13578;53.450;15.496;2023-04-02T22:25:59;8.57;;;5.85;;
25721;SDS011;13578;53.450;15.496;2023-04-02T22:29:00;8.07;;;5.88;;
25721;SDS011;13578;53.450;15.496;2023-04-02T22:32:01;17.02;;;6.07;;
25721;SDS011;13578;53.450;15.496;2023-04-02T22:35:02;11.13;;;5.32;;
25721;SDS011;13578;53.450;15.496;2023-04-02T22:38:03;7.50;;;5.45;;
25721;SDS011;13578;53.450;15.496;2023-04-02T22:41:05;14.65;;;6.10;;
25721;SDS011;13578;53.450;15.496;2023-04-02T22:44:06;8.82;;;5.95;;
25721;SDS011;13578;53.450;15.496;2023-04-02T22:47:06;17.27;;;5.75;;
25721;SDS011;13578;53.450;15.496;2023-04-02T22:50:07;10.10;;;6.60;;
25721;SDS011;13578;53.450;15.496;2023-04-02T22:53:08;17.30;;;6.32;;
25721;SDS011;13578;53.450;15.496;2023-04-02T22:56:15;6.97;;;5.25;;
25721;SDS011;13578;53.450;15.496;2023-04-02T22:59:17;13.98;;;6.82;;
25721;SDS011;13578;53.450;15.496;2023-04-02T23:02:18;6.43;;;5.25;;
25721;SDS011;13578;53.450;15.496;2023-04-02T23:05:18;8.63;;;5.57;;
25721;SDS011;13578;53.450;15.496;2023-04-02T23:08:19;15.52;;;5.50;;
25721;SDS011;13578;53.450;15.496;2023-04-02T23:11:24;5.15;;;4.72;;
25721;SDS011;13578;53.450;15.496;2023-04-02T23:17:26;7.30;;;4.53;;
25721;SDS011;13578;53.450;15.496;2023-04-02T23:20:27;15.40;;;5.78;;
25721;SDS011;13578;53.450;15.496;2023-04-02T23:23:28;18.25;;;6.10;;
25721;SDS011;13578;53.450;15.496;2023-04-02T23:26:29;17.48;;;6.30;;
25721;SDS011;13578;53.450;15.496;2023-04-02T23:29:30;10.25;;;5.75;;
25721;SDS011;13578;53.450;15.496;2023-04-02T23:32:31;7.00;;;5.30;;
25721;SDS011;13578;53.450;15.496;2023-04-02T23:35:32;14.63;;;6.45;;
25721;SDS011;13578;53.450;15.496;2023-04-02T23:38:32;11.45;;;5.80;;
25721;SDS011;13578;53.450;15.496;2023-04-02T23:41:33;10.68;;;4.90;;
25721;SDS011;13578;53.450;15.496;2023-04-02T23:44:35;11.82;;;5.45;;